Time,TemperatureF,DewpointF,PressureIn,WindDirection,WindDirectionDegrees,WindSpeedMPH,WindSpeedGustMPH,Humidity,HourlyPrecipIn,Conditions,Clouds,dailyrainin,SoftwareType,DateUTC
2013-07-14 00:32:00,58.0,42.0,-100.00,NNE,13,1.0,6.0,54,-99.99,,,-99.99,,2013-07-14 06:32:00,
2013-07-14 00:42:00,58.0,42.0,-100.00,NNE,13,1.0,6.0,54,-99.99,,,-99.99,,2013-07-14 06:42:00,
2013-07-14 01:33:00,58.0,42.0,-100.00,NE,43,4.0,6.0,53,-99.99,,,-99.99,,2013-07-14 07:33:00,
2013-07-14 01:43:00,58.0,42.0,-100.00,NE,43,4.0,6.0,53,-99.99,,,-99.99,,2013-07-14 07:43:00,
2013-07-14 01:53:00,58.0,42.0,-100.00,NE,43,4.0,6.0,53,-99.99,,,-99.99,,2013-07-14 07:53:00,
2013-07-14 02:32:00,57.0,40.0,-100.00,NE,43,6.0,8.0,52,-99.99,,,-99.99,,2013-07-14 08:32:00,
2013-07-14 02:42:00,57.0,40.0,-100.00,NE,43,6.0,8.0,52,-99.99,,,-99.99,,2013-07-14 08:42:00,
2013-07-14 02:53:00,57.0,40.0,-100.00,NE,43,6.0,8.0,52,-99.99,,,-99.99,,2013-07-14 08:53:00,
2013-07-14 03:32:00,58.0,41.0,-100.00,NNE,33,6.0,8.0,53,-99.99,,,-99.99,,2013-07-14 09:32:00,
2013-07-14 03:42:00,58.0,41.0,-100.00,NNE,33,6.0,8.0,53,-99.99,,,-99.99,,2013-07-14 09:42:00,
2013-07-14 03:53:00,58.0,41.0,-100.00,NNE,33,6.0,8.0,53,-99.99,,,-99.99,,2013-07-14 09:53:00,
2013-07-14 04:00:00,58.0,41.0,-100.00,WNW,290,3.0,6.0,53,-99.99,,,-99.99,,2013-07-14 10:00:00,
2013-07-14 04:32:00,58.0,41.0,-100.00,WNW,290,3.0,6.0,53,-99.99,,,-99.99,,2013-07-14 10:32:00,
2013-07-14 04:42:00,58.0,41.0,-100.00,WNW,290,3.0,6.0,53,-99.99,,,-99.99,,2013-07-14 10:42:00,
2013-07-14 05:32:00,57.0,40.0,-100.00,WNW,292,5.0,7.0,52,-99.99,,,-99.99,,2013-07-14 11:32:00,
2013-07-14 05:43:00,57.0,40.0,-100.00,WNW,292,5.0,7.0,52,-99.99,,,-99.99,,2013-07-14 11:43:00,
2013-07-14 05:53:00,57.0,40.0,-100.00,WNW,292,5.0,7.0,52,-99.99,,,-99.99,,2013-07-14 11:53:00,
2013-07-14 06:00:00,55.0,38.0,-100.00,WNW,296,10.0,14.0,51,-99.99,,,-99.99,,2013-07-14 12:00:00,
2013-07-14 06:33:00,55.0,38.0,-100.00,WNW,296,10.0,14.0,51,-99.99,,,-99.99,,2013-07-14 12:33:00,
2013-07-14 06:43:00,55.0,38.0,-100.00,WNW,296,10.0,14.0,51,-99.99,,,-99.99,,2013-07-14 12:43:00,
2013-07-14 06:53:00,55.0,38.0,-100.00,WNW,296,10.0,14.0,51,-99.99,,,-99.99,,2013-07-14 12:53:00,
2013-07-14 07:00:00,53.0,35.0,-100.00,NW,318,10.0,18.0,50,-99.99,,,-99.99,,2013-07-14 13:00:00,
2013-07-14 07:32:00,53.0,35.0,-100.00,NW,318,10.0,18.0,50,-99.99,,,-99.99,,2013-07-14 13:32:00,
2013-07-14 07:42:00,53.0,35.0,-100.00,NW,318,10.0,18.0,50,-99.99,,,-99.99,,2013-07-14 13:42:00,
2013-07-14 07:53:00,53.0,35.0,-100.00,NW,318,10.0,18.0,50,-99.99,,,-99.99,,2013-07-14 13:53:00,
2013-07-14 08:00:00,57.0,40.0,-100.00,WNW,285,8.0,14.0,53,-99.99,,,-99.99,,2013-07-14 14:00:00,
2013-07-14 08:33:00,57.0,40.0,-100.00,WNW,285,8.0,14.0,53,-99.99,,,-99.99,,2013-07-14 14:33:00,
2013-07-14 08:43:00,57.0,40.0,-100.00,WNW,285,8.0,14.0,53,-99.99,,,-99.99,,2013-07-14 14:43:00,
2013-07-14 08:53:00,57.0,40.0,-100.00,WNW,285,8.0,14.0,53,-99.99,,,-99.99,,2013-07-14 14:53:00,
2013-07-14 09:00:00,58.0,41.0,-100.00,West,272,7.0,10.0,54,-99.99,,,-99.99,,2013-07-14 15:00:00,
2013-07-14 09:32:00,58.0,41.0,-100.00,West,272,7.0,10.0,54,-99.99,,,-99.99,,2013-07-14 15:32:00,
2013-07-14 09:42:00,58.0,41.0,-100.00,West,272,7.0,10.0,54,-99.99,,,-99.99,,2013-07-14 15:42:00,
2013-07-14 09:53:00,58.0,41.0,-100.00,West,272,7.0,10.0,54,-99.99,,,-99.99,,2013-07-14 15:53:00,
2013-07-14 10:00:00,59.0,43.0,-100.00,West,271,5.0,7.0,54,-99.99,,,-99.99,,2013-07-14 16:00:00,
2013-07-14 10:32:00,59.0,43.0,-100.00,West,271,5.0,7.0,54,-99.99,,,-99.99,,2013-07-14 16:32:00,
2013-07-14 10:43:00,59.0,43.0,-100.00,West,271,5.0,7.0,54,-99.99,,,-99.99,,2013-07-14 16:43:00,
2013-07-14 10:53:00,59.0,43.0,-100.00,West,271,5.0,7.0,54,-99.99,,,-99.99,,2013-07-14 16:53:00,
2013-07-14 11:00:00,62.0,46.0,-100.00,West,268,5.0,8.0,56,-99.99,,,-99.99,,2013-07-14 17:00:00,
2013-07-14 11:32:00,62.0,46.0,-100.00,West,268,5.0,8.0,56,-99.99,,,-99.99,,2013-07-14 17:32:00,
2013-07-14 11:43:00,62.0,46.0,-100.00,West,268,5.0,8.0,56,-99.99,,,-99.99,,2013-07-14 17:43:00,
2013-07-14 11:53:00,62.0,46.0,-100.00,West,268,5.0,8.0,56,-99.99,,,-99.99,,2013-07-14 17:53:00,
2013-07-14 12:00:00,64.0,49.0,-100.00,West,260,6.0,9.0,57,-99.99,,,-99.99,,2013-07-14 18:00:00,
2013-07-14 12:32:00,64.0,49.0,-100.00,West,260,6.0,9.0,57,-99.99,,,-99.99,,2013-07-14 18:32:00,
2013-07-14 12:42:00,64.0,49.0,-100.00,West,260,6.0,9.0,57,-99.99,,,-99.99,,2013-07-14 18:42:00,
2013-07-14 12:52:00,64.0,49.0,-100.00,West,260,6.0,9.0,57,-99.99,,,-99.99,,2013-07-14 18:52:00,
2013-07-14 13:00:00,66.0,51.0,-100.00,WSW,239,5.0,8.0,58,-99.99,,,-99.99,,2013-07-14 19:00:00,
2013-07-14 13:32:00,66.0,51.0,-100.00,WSW,239,5.0,8.0,58,-99.99,,,-99.99,,2013-07-14 19:32:00,
2013-07-14 13:43:00,66.0,51.0,-100.00,WSW,239,5.0,8.0,58,-99.99,,,-99.99,,2013-07-14 19:43:00,
2013-07-14 13:53:00,66.0,51.0,-100.00,WSW,239,5.0,8.0,58,-99.99,,,-99.99,,2013-07-14 19:53:00,
2013-07-14 14:00:00,68.0,53.0,-100.00,WSW,240,7.0,13.0,58,-99.99,,,-99.99,,2013-07-14 20:00:00,
2013-07-14 14:32:00,68.0,53.0,-100.00,WSW,240,7.0,13.0,58,-99.99,,,-99.99,,2013-07-14 20:32:00,
2013-07-14 14:43:00,68.0,53.0,-100.00,WSW,240,7.0,13.0,58,-99.99,,,-99.99,,2013-07-14 20:43:00,
2013-07-14 14:53:00,68.0,53.0,-100.00,WSW,240,7.0,13.0,58,-99.99,,,-99.99,,2013-07-14 20:53:00,
2013-07-14 15:00:00,70.0,55.0,-100.00,WSW,241,7.0,11.0,59,-99.99,,,-99.99,,2013-07-14 21:00:00,
2013-07-14 15:32:00,70.0,55.0,-100.00,WSW,241,7.0,11.0,59,-99.99,,,-99.99,,2013-07-14 21:32:00,
2013-07-14 15:43:00,70.0,55.0,-100.00,WSW,241,7.0,11.0,59,-99.99,,,-99.99,,2013-07-14 21:43:00,
2013-07-14 15:52:00,70.0,55.0,-100.00,WSW,241,7.0,11.0,59,-99.99,,,-99.99,,2013-07-14 21:52:00,
2013-07-14 20:00:00,70.0,55.0,-100.00,West,261,9.0,12.0,60,-99.99,,,-99.99,,2013-07-15 02:00:00,
2013-07-14 20:32:00,70.0,55.0,-100.00,West,261,9.0,12.0,60,-99.99,,,-99.99,,2013-07-15 02:32:00,
2013-07-14 20:42:00,70.0,55.0,-100.00,West,261,9.0,12.0,60,-99.99,,,-99.99,,2013-07-15 02:42:00,
2013-07-14 20:53:00,70.0,55.0,-100.00,West,261,9.0,12.0,60,-99.99,,,-99.99,,2013-07-15 02:53:00,
2013-07-14 21:32:00,69.0,54.0,-100.00,West,266,7.0,11.0,58,-99.99,,,-99.99,,2013-07-15 03:32:00,
2013-07-14 21:43:00,69.0,54.0,-100.00,West,266,7.0,11.0,58,-99.99,,,-99.99,,2013-07-15 03:43:00,
2013-07-14 21:53:00,69.0,54.0,-100.00,West,266,7.0,11.0,58,-99.99,,,-99.99,,2013-07-15 03:53:00,
2013-07-14 22:33:00,66.0,51.0,-100.00,WSW,255,5.0,9.0,57,-99.99,,,-99.99,,2013-07-15 04:33:00,
2013-07-14 22:42:00,66.0,51.0,-100.00,WSW,255,5.0,9.0,57,-99.99,,,-99.99,,2013-07-15 04:42:00,
2013-07-14 23:32:00,65.0,50.0,-100.00,SW,223,3.0,6.0,58,-99.99,,,-99.99,,2013-07-15 05:32:00,
2013-07-14 23:43:00,65.0,50.0,-100.00,SW,223,3.0,6.0,58,-99.99,,,-99.99,,2013-07-15 05:43:00,
2013-07-14 23:53:00,65.0,50.0,-100.00,SW,223,3.0,6.0,58,-99.99,,,-99.99,,2013-07-15 05:53:00,